createdAt,value
2018-06-09T00:01:42.993Z,1006.97
2018-06-09T00:02:43.010Z,1006.97
2018-06-09T00:04:35.846Z,1006.90
2018-06-09T00:05:35.873Z,1006.91
2018-06-09T00:07:28.980Z,1006.95
2018-06-09T00:08:29.285Z,1006.95
2018-06-09T00:10:22.663Z,1006.96
2018-06-09T00:11:22.681Z,1006.91
2018-06-09T00:13:16.061Z,1006.92
2018-06-09T00:14:15.710Z,1006.90
2018-06-09T00:16:09.957Z,1006.87
2018-06-09T00:17:09.407Z,1006.87
2018-06-09T00:19:02.863Z,1006.89
2018-06-09T00:20:02.246Z,1006.90
2018-06-09T00:21:55.264Z,1006.89
2018-06-09T00:22:55.168Z,1006.91
2018-06-09T00:24:48.671Z,1006.92
2018-06-09T00:25:48.150Z,1006.89
2018-06-09T00:27:43.507Z,1006.88
2018-06-09T00:28:41.727Z,1006.88
2018-06-09T00:30:35.939Z,1006.88
2018-06-09T00:31:35.098Z,1006.90
2018-06-09T00:33:28.772Z,1006.88
2018-06-09T00:34:28.517Z,1006.91
2018-06-09T00:36:22.211Z,1006.89
2018-06-09T00:37:22.130Z,1006.84
2018-06-09T00:39:15.811Z,1006.84
2018-06-09T00:40:15.271Z,1006.81
2018-06-09T00:42:09.269Z,1006.83
2018-06-09T00:43:08.973Z,1006.81
2018-06-09T00:45:02.431Z,1006.79
2018-06-09T00:46:02.020Z,1006.81
2018-06-09T00:47:55.239Z,1006.76
2018-06-09T00:48:55.216Z,1006.80
2018-06-09T00:50:48.142Z,1006.80
2018-06-09T00:51:48.363Z,1006.77
2018-06-09T00:53:40.776Z,1006.71
2018-06-09T00:54:40.982Z,1006.70
2018-06-09T00:56:34.456Z,1006.75
2018-06-09T00:57:34.653Z,1006.73
2018-06-09T00:59:27.482Z,1006.76
2018-06-09T01:00:27.746Z,1006.75
2018-06-09T01:02:20.766Z,1006.78
2018-06-09T01:03:20.648Z,1006.76
2018-06-09T01:05:14.112Z,1006.74
2018-06-09T01:06:14.086Z,1006.73
2018-06-09T01:08:09.018Z,1006.74
2018-06-09T01:09:06.939Z,1006.73
2018-06-09T01:11:00.482Z,1006.74
2018-06-09T01:12:00.148Z,1006.76
2018-06-09T01:13:52.720Z,1006.77
2018-06-09T01:14:53.000Z,1006.75
2018-06-09T01:16:46.523Z,1006.74
2018-06-09T01:17:45.913Z,1006.76
2018-06-09T01:19:39.278Z,1006.78
2018-06-09T01:20:39.288Z,1006.79
2018-06-09T01:22:32.652Z,1006.81
2018-06-09T01:23:32.341Z,1006.82
2018-06-09T01:25:27.161Z,1006.79
2018-06-09T01:26:27.114Z,1006.75
2018-06-09T01:28:20.458Z,1006.82
2018-06-09T01:29:20.465Z,1006.81
2018-06-09T01:31:13.974Z,1006.84
2018-06-09T01:32:13.852Z,1006.85
2018-06-09T01:34:07.203Z,1006.81
2018-06-09T01:35:07.205Z,1006.83
2018-06-09T01:37:01.759Z,1006.80
2018-06-09T01:38:01.610Z,1006.82
2018-06-09T01:39:54.996Z,1006.81
2018-06-09T01:40:55.046Z,1006.82
2018-06-09T01:42:48.696Z,1006.85
2018-06-09T01:43:48.761Z,1006.85
2018-06-09T01:45:41.816Z,1006.86
2018-06-09T01:46:41.699Z,1006.86
2018-06-09T01:48:35.073Z,1006.85
2018-06-09T01:49:35.345Z,1006.83
2018-06-09T01:51:29.053Z,1006.82
2018-06-09T01:52:30.004Z,1006.79
2018-06-09T01:54:21.937Z,1006.76
2018-06-09T01:55:21.549Z,1006.76
2018-06-09T01:57:18.336Z,1006.74
2018-06-09T01:58:14.951Z,1006.76
2018-06-09T02:00:08.774Z,1006.79
2018-06-09T02:01:08.845Z,1006.79
2018-06-09T02:03:03.102Z,1006.82
2018-06-09T02:04:02.017Z,1006.80
2018-06-09T02:05:55.369Z,1006.83
2018-06-09T02:06:55.036Z,1006.82
2018-06-09T02:08:49.905Z,1006.88
2018-06-09T02:09:49.709Z,1006.86
2018-06-09T02:11:43.188Z,1006.85
2018-06-09T02:12:43.155Z,1006.82
2018-06-09T02:14:43.593Z,1006.83
2018-06-09T02:15:43.615Z,1006.84
2018-06-09T02:17:36.892Z,1006.88
2018-06-09T02:18:36.864Z,1006.84
2018-06-09T02:20:30.334Z,1006.81
2018-06-09T02:21:29.962Z,1006.82
2018-06-09T02:23:23.680Z,1006.77
2018-06-09T02:24:23.651Z,1006.83
2018-06-09T02:26:20.233Z,1006.77
2018-06-09T02:27:17.798Z,1006.78
2018-06-09T02:29:11.494Z,1006.75
2018-06-09T02:30:11.451Z,1006.74
2018-06-09T02:32:04.856Z,1006.75
2018-06-09T02:33:04.778Z,1006.74
2018-06-09T02:34:58.284Z,1006.74
2018-06-09T02:35:57.983Z,1006.74
2018-06-09T02:37:52.376Z,1006.71
2018-06-09T02:38:53.931Z,1006.72
2018-06-09T02:40:46.814Z,1006.77
2018-06-09T02:41:45.308Z,1006.79
2018-06-09T02:43:38.153Z,1006.80
2018-06-09T02:44:38.174Z,1006.79
2018-06-09T02:46:31.569Z,1006.78
2018-06-09T02:47:31.535Z,1006.76
2018-06-09T02:49:24.968Z,1006.77
2018-06-09T02:50:24.366Z,1006.75
2018-06-09T02:52:17.765Z,1006.76
2018-06-09T02:53:17.506Z,1006.81
2018-06-09T02:55:11.179Z,1006.76
2018-06-09T02:56:11.132Z,1006.76
2018-06-09T02:58:04.157Z,1006.79
2018-06-09T02:59:03.766Z,1006.76
2018-06-09T03:00:57.244Z,1006.79
2018-06-09T03:01:57.477Z,1006.76
2018-06-09T03:03:51.379Z,1006.79
2018-06-09T03:04:50.818Z,1006.81
2018-06-09T03:06:43.728Z,1006.79
2018-06-09T03:07:43.394Z,1006.78
2018-06-09T03:09:37.165Z,1006.71
2018-06-09T03:10:37.082Z,1006.70
2018-06-09T03:12:29.748Z,1006.66
2018-06-09T03:13:29.957Z,1006.62
2018-06-09T03:15:23.383Z,1006.64
2018-06-09T03:16:23.354Z,1006.64
2018-06-09T03:18:16.754Z,1006.66
2018-06-09T03:19:16.424Z,1006.65
2018-06-09T03:21:10.118Z,1006.64
2018-06-09T03:22:10.182Z,1006.65
2018-06-09T03:24:03.524Z,1006.67
2018-06-09T03:25:03.234Z,1006.59
2018-06-09T03:26:57.198Z,1006.60
2018-06-09T03:27:57.061Z,1006.60
2018-06-09T03:29:51.034Z,1006.61
2018-06-09T03:30:50.807Z,1006.63
2018-06-09T03:32:43.599Z,1006.62
2018-06-09T03:33:43.598Z,1006.59
2018-06-09T03:35:37.078Z,1006.63
2018-06-09T03:36:37.004Z,1006.63
2018-06-09T03:38:30.116Z,1006.66
2018-06-09T03:39:30.360Z,1006.63
2018-06-09T03:41:23.441Z,1006.68
2018-06-09T03:42:23.300Z,1006.69
2018-06-09T03:44:16.373Z,1006.67
2018-06-09T03:45:16.350Z,1006.69
2018-06-09T03:47:10.112Z,1006.70
2018-06-09T03:48:09.545Z,1006.73
2018-06-09T03:50:03.033Z,1006.68
2018-06-09T03:51:02.635Z,1006.78
2018-06-09T03:52:56.591Z,1006.77
2018-06-09T03:53:56.282Z,1006.80
2018-06-09T03:55:49.702Z,1006.78
2018-06-09T03:56:49.659Z,1006.79
2018-06-09T03:58:43.071Z,1006.82
2018-06-09T03:59:42.778Z,1006.84
2018-06-09T04:01:38.038Z,1006.90
2018-06-09T04:02:36.988Z,1006.88
2018-06-09T04:04:29.883Z,1006.87
2018-06-09T04:05:29.819Z,1006.84
2018-06-09T04:07:22.788Z,1006.84
2018-06-09T04:08:22.428Z,1006.81
2018-06-09T04:10:16.155Z,1006.87
2018-06-09T04:11:17.629Z,1006.85
2018-06-09T04:13:08.998Z,1006.86
2018-06-09T04:14:09.239Z,1006.88
2018-06-09T04:16:04.628Z,1006.86
2018-06-09T04:17:02.387Z,1006.83
2018-06-09T04:18:55.803Z,1006.79
2018-06-09T04:19:55.801Z,1006.77
2018-06-09T04:21:49.191Z,1006.79
2018-06-09T04:22:48.842Z,1006.83
2018-06-09T04:24:44.050Z,1006.85
2018-06-09T04:25:43.540Z,1006.84
2018-06-09T04:27:39.221Z,1006.87
2018-06-09T04:28:39.440Z,1006.86
2018-06-09T04:30:32.860Z,1006.86
2018-06-09T04:31:32.836Z,1006.86
2018-06-09T04:33:30.813Z,1006.83
2018-06-09T04:34:30.782Z,1006.80
2018-06-09T04:36:24.208Z,1006.82
2018-06-09T04:37:24.130Z,1006.81
2018-06-09T04:39:17.629Z,1006.84
2018-06-09T04:40:17.478Z,1006.84
2018-06-09T04:42:16.177Z,1006.89
2018-06-09T04:43:13.101Z,1006.89
2018-06-09T04:45:14.094Z,1006.88
2018-06-09T04:46:14.069Z,1006.88
2018-06-09T04:48:08.858Z,1006.87
2018-06-09T04:49:07.311Z,1006.83
2018-06-09T04:51:00.745Z,1006.88
2018-06-09T04:52:00.302Z,1006.87
2018-06-09T04:53:54.567Z,1006.85
2018-06-09T04:54:55.584Z,1006.87
2018-06-09T04:56:47.524Z,1006.88
2018-06-09T04:57:47.017Z,1006.86
2018-06-09T04:59:41.082Z,1006.85
2018-06-09T05:00:40.459Z,1006.84
2018-06-09T05:02:34.781Z,1006.80
2018-06-09T05:03:34.759Z,1006.80
2018-06-09T05:05:28.190Z,1006.78
2018-06-09T05:06:28.165Z,1006.79
2018-06-09T05:08:21.081Z,1006.79
2018-06-09T05:09:21.062Z,1006.79
2018-06-09T05:11:15.842Z,1006.82
2018-06-09T05:12:16.162Z,1006.86
2018-06-09T05:14:09.367Z,1006.78
2018-06-09T05:15:09.173Z,1006.81
2018-06-09T05:17:02.499Z,1006.82
2018-06-09T05:18:02.498Z,1006.78
2018-06-09T05:19:56.214Z,1006.80
2018-06-09T05:20:55.993Z,1006.83
2018-06-09T05:22:49.460Z,1006.89
2018-06-09T05:23:48.953Z,1006.86
2018-06-09T05:25:42.825Z,1006.87
2018-06-09T05:26:43.241Z,1006.90
2018-06-09T05:28:36.733Z,1006.91
2018-06-09T05:29:36.179Z,1006.93
2018-06-09T05:31:29.588Z,1006.94
2018-06-09T05:32:29.127Z,1006.96
2018-06-09T05:34:22.990Z,1006.96
2018-06-09T05:36:36.374Z,1006.92
2018-06-09T05:37:36.353Z,1006.92
2018-06-09T05:39:29.776Z,1006.91
2018-06-09T05:40:31.986Z,1006.92
2018-06-09T05:42:23.240Z,1006.94
2018-06-09T05:43:23.102Z,1006.97
2018-06-09T05:45:16.398Z,1006.97
2018-06-09T05:46:16.777Z,1006.93
2018-06-09T05:48:09.791Z,1006.92
2018-06-09T05:49:09.479Z,1006.98
2018-06-09T05:51:03.295Z,1006.93
2018-06-09T05:52:03.198Z,1006.97
2018-06-09T05:53:59.101Z,1006.99
2018-06-09T05:54:56.558Z,1007.01
2018-06-09T05:56:50.084Z,1007.05
2018-06-09T05:57:49.971Z,1007.09
2018-06-09T05:59:43.980Z,1007.10
2018-06-09T06:00:43.355Z,1007.11
2018-06-09T06:02:36.871Z,1007.14
2018-06-09T06:03:36.428Z,1007.08
2018-06-09T06:05:30.706Z,1007.13
2018-06-09T06:06:29.830Z,1007.13
2018-06-09T06:08:23.748Z,1007.16
2018-06-09T06:09:22.789Z,1007.17
2018-06-09T06:11:16.702Z,1007.19
2018-06-09T06:12:16.082Z,1007.22
2018-06-09T06:14:09.550Z,1007.14
2018-06-09T06:15:09.187Z,1007.14
2018-06-09T06:17:03.002Z,1007.19
2018-06-09T06:18:02.538Z,1007.18
2018-06-09T06:19:56.334Z,1007.18
2018-06-09T06:20:57.016Z,1007.19
2018-06-09T06:22:49.403Z,1007.23
2018-06-09T06:23:49.474Z,1007.22
2018-06-09T06:25:47.439Z,1007.19
2018-06-09T06:26:45.426Z,1007.21
2018-06-09T06:28:39.711Z,1007.18
2018-06-09T06:29:39.667Z,1007.24
2018-06-09T06:31:40.216Z,1007.22
2018-06-09T06:32:33.104Z,1007.21
2018-06-09T06:34:30.096Z,1007.27
2018-06-09T06:35:27.389Z,1007.29
2018-06-09T06:37:21.567Z,1007.29
2018-06-09T06:38:21.428Z,1007.29
2018-06-09T06:40:13.387Z,1007.30
2018-06-09T06:41:13.313Z,1007.34
2018-06-09T06:43:07.310Z,1007.34
2018-06-09T06:44:07.405Z,1007.39
2018-06-09T06:46:00.769Z,1007.46
2018-06-09T06:47:00.772Z,1007.49
2018-06-09T06:48:53.630Z,1007.46
2018-06-09T06:49:54.503Z,1007.47
2018-06-09T06:51:48.128Z,1007.43
2018-06-09T06:52:46.711Z,1007.45
2018-06-09T06:54:41.721Z,1007.42
2018-06-09T06:55:41.163Z,1007.36
2018-06-09T06:57:34.184Z,1007.32
2018-06-09T06:58:34.055Z,1007.36
2018-06-09T07:00:27.199Z,1007.33
2018-06-09T07:01:27.519Z,1007.33
2018-06-09T07:03:21.051Z,1007.37
2018-06-09T07:04:21.052Z,1007.36
2018-06-09T07:06:13.949Z,1007.37
2018-06-09T07:07:13.758Z,1007.40
2018-06-09T07:09:17.629Z,1007.44
2018-06-09T07:10:17.511Z,1007.39
2018-06-09T07:12:11.974Z,1007.42
2018-06-09T07:13:12.829Z,1007.39
2018-06-09T07:15:08.846Z,1007.39
2018-06-09T07:16:09.229Z,1007.40
2018-06-09T07:18:02.205Z,1007.41
2018-06-09T07:19:02.553Z,1007.46
2018-06-09T07:20:58.167Z,1007.49
2018-06-09T07:21:57.624Z,1007.50
2018-06-09T07:23:50.134Z,1007.50
2018-06-09T07:24:49.309Z,1007.46
2018-06-09T07:26:43.028Z,1007.46
2018-06-09T07:27:43.994Z,1007.45
2018-06-09T07:29:37.472Z,1007.46
2018-06-09T07:30:36.623Z,1007.46
2018-06-09T07:32:29.386Z,1007.46
2018-06-09T07:33:29.382Z,1007.47
2018-06-09T07:35:22.643Z,1007.45
2018-06-09T07:36:22.559Z,1007.50
2018-06-09T07:38:16.536Z,1007.56
2018-06-09T07:39:15.574Z,1007.56
2018-06-09T07:41:09.451Z,1007.56
2018-06-09T07:42:09.369Z,1007.59
2018-06-09T07:44:02.713Z,1007.61
2018-06-09T07:45:02.692Z,1007.57
2018-06-09T07:46:56.166Z,1007.57
2018-06-09T07:47:56.177Z,1007.59
2018-06-09T07:49:50.134Z,1007.67
2018-06-09T07:50:51.005Z,1007.65
2018-06-09T07:52:44.461Z,1007.62
2018-06-09T07:53:43.824Z,1007.65
2018-06-09T07:55:37.478Z,1007.67
2018-06-09T07:56:36.900Z,1007.66
2018-06-09T07:58:32.034Z,1007.68
2018-06-09T07:59:30.339Z,1007.64
2018-06-09T08:01:24.616Z,1007.66
2018-06-09T08:02:24.226Z,1007.64
2018-06-09T08:04:19.088Z,1007.66
2018-06-09T08:05:16.706Z,1007.67
2018-06-09T08:08:03.215Z,1007.69
2018-06-09T08:09:01.621Z,1007.69
2018-06-09T08:10:55.551Z,1007.72
2018-06-09T08:11:54.768Z,1007.75
2018-06-09T08:13:48.454Z,1007.79
2018-06-09T08:14:49.883Z,1007.78
2018-06-09T08:16:44.913Z,1007.76
2018-06-09T08:17:42.329Z,1007.80
2018-06-09T08:19:39.188Z,1007.79
2018-06-09T08:20:36.267Z,1007.76
2018-06-09T08:22:29.198Z,1007.78
2018-06-09T08:23:29.872Z,1007.77
2018-06-09T08:26:15.097Z,1007.75
2018-06-09T08:27:13.841Z,1007.74
2018-06-09T08:30:08.866Z,1007.76
2018-06-09T08:33:07.658Z,1007.70
2018-06-09T08:35:57.677Z,1007.75
2018-06-09T08:36:57.269Z,1007.80
2018-06-09T08:38:52.741Z,1007.82
2018-06-09T08:39:52.531Z,1007.77
2018-06-09T08:41:45.945Z,1007.81
2018-06-09T08:42:45.510Z,1007.80
2018-06-09T08:44:39.253Z,1007.77
2018-06-09T08:45:39.858Z,1007.80
2018-06-09T08:47:32.870Z,1007.75
2018-06-09T08:48:33.351Z,1007.71
2018-06-09T08:50:27.362Z,1007.72
2018-06-09T08:51:28.324Z,1007.74
2018-06-09T08:53:21.188Z,1007.75
2018-06-09T08:54:20.189Z,1007.79
2018-06-09T08:56:14.688Z,1007.74
2018-06-09T08:57:13.603Z,1007.74
2018-06-09T08:59:10.096Z,1007.76
2018-06-09T09:00:08.849Z,1007.79
2018-06-09T09:02:00.999Z,1007.79
2018-06-09T09:03:00.546Z,1007.74
2018-06-09T09:04:54.488Z,1007.75
2018-06-09T09:05:53.396Z,1007.79
2018-06-09T09:07:49.771Z,1007.76
2018-06-09T09:10:00.597Z,1007.77
2018-06-09T09:11:00.279Z,1007.77
2018-06-09T09:12:54.536Z,1007.78
2018-06-09T09:13:54.016Z,1007.77
2018-06-09T09:15:49.100Z,1007.79
2018-06-09T09:16:47.252Z,1007.76
2018-06-09T09:18:42.452Z,1007.80
2018-06-09T09:19:40.858Z,1007.81
2018-06-09T09:21:34.444Z,1007.79
2018-06-09T09:22:34.373Z,1007.80
2018-06-09T09:24:27.792Z,1007.79
2018-06-09T09:25:27.374Z,1007.78
2018-06-09T09:27:22.241Z,1007.70
2018-06-09T09:28:21.348Z,1007.73
2018-06-09T09:30:20.574Z,1007.74
2018-06-09T09:31:16.836Z,1007.76
2018-06-09T09:33:34.270Z,1007.78
2018-06-09T09:34:33.556Z,1007.70
2018-06-09T09:37:18.108Z,1007.69
2018-06-09T09:38:18.928Z,1007.69
2018-06-09T09:40:11.771Z,1007.65
2018-06-09T09:41:11.282Z,1007.66
2018-06-09T09:43:05.992Z,1007.64
2018-06-09T09:44:03.721Z,1007.67
2018-06-09T09:45:58.352Z,1007.68
2018-06-09T09:46:58.312Z,1007.67
2018-06-09T09:48:53.630Z,1007.66
2018-06-09T09:49:50.331Z,1007.65
2018-06-09T09:51:49.035Z,1007.65
2018-06-09T09:52:45.341Z,1007.68
2018-06-09T09:54:38.238Z,1007.64
2018-06-09T09:55:38.694Z,1007.63
2018-06-09T09:57:31.247Z,1007.62
2018-06-09T09:58:32.063Z,1007.63
2018-06-09T10:00:25.540Z,1007.64
2018-06-09T10:01:25.544Z,1007.60
2018-06-09T10:03:18.991Z,1007.61
2018-06-09T10:04:18.909Z,1007.59
2018-06-09T10:06:11.547Z,1007.58
2018-06-09T10:07:10.944Z,1007.56
2018-06-09T10:09:04.391Z,1007.60
2018-06-09T10:10:04.879Z,1007.59
2018-06-09T10:11:59.235Z,1007.60
2018-06-09T10:12:58.283Z,1007.60
2018-06-09T10:14:51.817Z,1007.55
2018-06-09T10:15:52.779Z,1007.55
2018-06-09T10:17:44.915Z,1007.54
2018-06-09T10:18:44.620Z,1007.50
2018-06-09T10:20:41.406Z,1007.54
2018-06-09T10:21:41.341Z,1007.51
2018-06-09T10:23:34.129Z,1007.51
2018-06-09T10:24:34.127Z,1007.48
2018-06-09T10:26:27.629Z,1007.47
2018-06-09T10:27:26.866Z,1007.49
2018-06-09T10:29:20.566Z,1007.47
2018-06-09T10:30:20.156Z,1007.48
2018-06-09T10:32:14.516Z,1007.56
2018-06-09T10:33:14.440Z,1007.54
2018-06-09T10:35:07.578Z,1007.50
2018-06-09T10:36:07.018Z,1007.52
2018-06-09T10:38:02.821Z,1007.44
2018-06-09T10:39:03.356Z,1007.44
2018-06-09T10:40:57.263Z,1007.47
2018-06-09T10:43:52.117Z,1007.42
2018-06-09T10:44:50.156Z,1007.41
2018-06-09T10:46:43.599Z,1007.46
2018-06-09T10:47:42.507Z,1007.47
2018-06-09T10:49:37.382Z,1007.47
2018-06-09T10:50:37.128Z,1007.43
2018-06-09T10:52:30.836Z,1007.45
2018-06-09T10:53:31.221Z,1007.42
2018-06-09T10:56:15.087Z,1007.42
2018-06-09T10:57:14.977Z,1007.47
2018-06-09T10:59:08.220Z,1007.45
2018-06-09T11:00:09.655Z,1007.45
2018-06-09T11:02:54.593Z,1007.40
2018-06-09T11:03:53.811Z,1007.38
2018-06-09T11:05:48.333Z,1007.39
2018-06-09T11:06:48.448Z,1007.37
2018-06-09T11:08:42.454Z,1007.34
2018-06-09T11:09:41.731Z,1007.34
2018-06-09T11:11:33.021Z,1007.29
2018-06-09T11:12:32.913Z,1007.29
2018-06-09T11:14:27.676Z,1007.32
2018-06-09T11:15:27.227Z,1007.33
2018-06-09T11:17:20.160Z,1007.34
2018-06-09T11:18:20.104Z,1007.31
2018-06-09T11:20:13.578Z,1007.34
2018-06-09T11:21:16.034Z,1007.30
2018-06-09T11:23:06.986Z,1007.21
2018-06-09T11:24:06.838Z,1007.21
2018-06-09T11:26:00.970Z,1007.16
2018-06-09T11:27:00.446Z,1007.16
2018-06-09T11:28:54.726Z,1007.15
2018-06-09T11:29:55.137Z,1007.11
2018-06-09T11:31:48.855Z,1007.13
2018-06-09T11:32:47.112Z,1007.10
2018-06-09T11:35:30.463Z,1007.08
2018-06-09T11:45:28.999Z,1007.02
2018-06-09T11:46:29.229Z,1007.00
2018-06-09T11:48:22.552Z,1007.00
2018-06-09T11:51:15.653Z,1006.99
2018-06-09T11:52:15.625Z,1007.00
2018-06-09T11:54:11.252Z,1007.01
2018-06-09T11:55:09.594Z,1007.01
2018-06-09T11:59:52.327Z,1006.96
2018-06-09T12:00:40.307Z,1006.91
2018-06-09T12:02:31.784Z,1006.86
2018-06-09T12:03:31.139Z,1006.88
2018-06-09T12:05:38.414Z,1006.86
